Time;durP1;ratioP1;P1;durP2;ratioP2;P2;SDS_P1;SDS_P2;PMS_P1;PMS_P2;Temp;Humidity;BMP_temperature;BMP_pressure;BME280_temperature;BME280_humidity;BME280_pressure;Samples;Min_cycle;Max_cycle;Signal;HPM_P1;HPM_P2
2021/07/31 00:02:01;;;;;;;6.67;4.60;;;;;;;29.77;45.51;100237.98;128413;1084;64223;-86
2021/07/31 00:04:27;;;;;;;6.83;4.40;;;;;;;29.77;46.00;100246.14;128392;1083;64204;-86
2021/07/31 00:07:03;;;;;;;5.30;3.93;;;;;;;29.78;45.95;100249.70;128389;1084;64097;-86
2021/07/31 00:09:31;;;;;;;5.97;4.03;;;;;;;29.76;45.58;100245.31;128455;1082;63968;-86
2021/07/31 00:12:00;;;;;;;5.97;4.30;;;;;;;29.76;45.81;100239.00;128374;1084;64135;-85
2021/07/31 00:14:30;;;;;;;5.80;4.17;;;;;;;29.76;45.61;100244.45;128394;1084;64284;-87
2021/07/31 00:16:58;;;;;;;6.10;4.03;;;;;;;29.76;46.15;100247.16;128417;1082;64284;-85
2021/07/31 00:19:27;;;;;;;6.43;4.23;;;;;;;29.76;45.91;100252.61;128424;1082;64219;-86
2021/07/31 00:22:04;;;;;;;;;;;;;;;;;;;;;
2021/07/31 00:24:31;;;;;;;5.27;4.30;;;;;;;29.75;46.15;100249.05;128395;1084;64126;-87
2021/07/31 00:27:00;;;;;;;5.70;4.00;;;;;;;29.75;46.13;100248.19;128408;1084;64176;-87
2021/07/31 00:29:30;;;;;;;5.63;4.20;;;;;;;29.75;45.65;100242.74;128457;1082;64121;-86
2021/07/31 00:32:15;;;;;;;6.67;4.50;;;;;;;29.74;46.23;100244.63;128390;1084;64358;-86
2021/07/31 00:34:42;;;;;;;4.93;4.20;;;;;;;29.76;46.16;100249.89;128394;1083;64230;-86
2021/07/31 00:37:12;;;;;;;6.63;4.63;;;;;;;29.75;45.95;100256.34;128427;1084;64147;-85
2021/07/31 00:39:39;;;;;;;6.60;4.33;;;;;;;29.75;46.26;100238.17;128438;1084;64117;-86
2021/07/31 00:42:07;;;;;;;5.50;4.30;;;;;;;29.75;45.83;100242.74;128400;1082;64664;-86
2021/07/31 00:44:35;;;;;;;5.20;4.03;;;;;;;29.74;46.21;100244.63;128381;1084;64172;-86
2021/07/31 00:47:02;;;;;;;5.40;4.20;;;;;;;29.75;46.26;100248.19;128386;1082;64150;-86
2021/07/31 00:49:51;;;;;;;6.30;4.30;;;;;;;29.75;46.22;100240.03;128397;1084;64772;-86
2021/07/31 00:52:20;;;;;;;5.40;4.40;;;;;;;29.74;46.20;100241.91;127998;1085;64237;-85
2021/07/31 00:54:48;;;;;;;5.17;4.10;;;;;;;29.73;45.82;100240.21;127996;1087;64269;-85
2021/07/31 00:57:14;;;;;;;;;;;;;;;29.74;46.04;100243.80;127990;1085;64150;-86
2021/07/31 00:59:41;;;;;;;6.73;4.43;;;;;;;29.72;46.14;100241.23;128369;1087;64254;-86
2021/07/31 01:02:19;;;;;;;5.37;4.30;;;;;;;29.72;46.29;100238.51;128011;1087;64277;-86
2021/07/31 01:04:46;;;;;;;6.43;4.00;;;;;;;29.72;46.16;100232.23;128346;1087;64517;-87
2021/07/31 01:07:12;;;;;;;7.77;4.27;;;;;;;29.72;46.34;100246.67;127994;1085;64166;-86
2021/07/31 01:09:41;;;;;;;5.23;4.23;;;;;;;29.72;46.38;100243.95;128042;1087;64147;-86
2021/07/31 01:12:08;;;;;;;6.80;4.40;;;;;;;29.72;46.19;100240.39;127988;1087;63982;-85
2021/07/31 01:14:37;;;;;;;5.77;4.30;;;;;;;29.72;45.92;100235.79;128380;1086;64176;-86
2021/07/31 01:17:11;;;;;;;;;;;;;;;29.71;46.18;100244.13;128358;1087;64221;-86
2021/07/31 01:19:39;;;;;;;5.47;4.70;;;;;;;29.70;45.98;100247.91;128373;1086;64263;-86
2021/07/31 01:22:05;;;;;;;6.10;4.50;;;;;;;29.71;46.47;100252.30;128027;1087;63971;-86
2021/07/31 01:24:35;;;;;;;4.97;4.10;;;;;;;29.70;46.42;100248.74;128003;1087;64099;-86
2021/07/31 01:27:05;;;;;;;7.10;4.30;;;;;;;29.71;45.97;100246.86;128002;1087;64141;-86
2021/07/31 01:29:52;;;;;;;;;;;;;;;;;;;;;
2021/07/31 01:32:18;;;;;;;5.73;4.17;;;;;;;29.71;46.12;100246.86;128432;1081;64141;-86
2021/07/31 01:34:46;;;;;;;7.47;4.37;;;;;;;29.71;46.25;100246.86;128400;1084;64128;-87
2021/07/31 01:37:12;;;;;;;5.60;4.77;;;;;;;29.71;46.32;100244.13;128383;1083;64131;-86
2021/07/31 01:39:38;;;;;;;5.80;4.80;;;;;;;29.70;46.28;100240.58;128395;1084;64099;-86
2021/07/31 01:42:14;;;;;;;5.73;4.30;;;;;;;29.71;46.33;100235.97;128385;1084;65210;-86
2021/07/31 01:44:41;;;;;;;6.00;4.20;;;;;;;29.70;46.02;100240.58;128436;1083;64098;-86
2021/07/31 01:47:10;;;;;;;6.80;4.73;;;;;;;29.70;46.13;100237.03;128418;1084;62010;-87
2021/07/31 01:49:36;;;;;;;;;;;;;;;29.70;46.34;100240.58;128445;1084;64133;-85
2021/07/31 01:52:02;;;;;;;7.10;4.37;;;;;;;29.69;46.23;100240.77;128435;1084;64124;-85
2021/07/31 01:54:31;;;;;;;5.73;4.47;;;;;;;29.68;46.29;100237.18;128372;1083;64217;-86
2021/07/31 01:56:57;;;;;;;;;;;;;;;29.69;46.58;100240.77;128461;1084;64127;-86
2021/07/31 01:59:32;;;;;;;6.67;4.77;;;;;;;29.68;46.33;100244.50;128433;1084;64160;-85
2021/07/31 02:01:59;;;;;;;5.40;4.43;;;;;;;29.67;46.22;100240.95;128393;1084;64154;-86
2021/07/31 02:04:34;;;;;;;5.57;4.17;;;;;;;29.67;46.61;100240.09;128389;1084;64204;-85
2021/07/31 02:07:01;;;;;;;6.47;4.40;;;;;;;29.67;46.51;100246.39;128364;1084;64309;-85
2021/07/31 02:09:28;;;;;;;6.37;4.70;;;;;;;29.67;46.26;100248.25;128425;1084;64285;-85
2021/07/31 02:11:57;;;;;;;6.97;4.50;;;;;;;29.68;46.70;100249.95;128362;1084;64031;-85
2021/07/31 02:14:24;;;;;;;6.13;4.80;;;;;;;29.68;46.64;100244.50;128429;1084;64093;-87
2021/07/31 02:16:54;;;;;;;5.93;4.57;;;;;;;29.69;46.37;100248.92;128369;1084;64264;-86
2021/07/31 02:19:21;;;;;;;6.30;4.40;;;;;;;29.69;46.35;100238.88;128426;1082;64948;-86
2021/07/31 02:21:50;;;;;;;5.70;4.40;;;;;;;29.68;46.54;100247.23;128418;1084;64120;-85
2021/07/31 02:24:17;;;;;;;6.57;4.57;;;;;;;29.69;46.73;100246.20;128387;1084;64146;-86
2021/07/31 02:26:46;;;;;;;6.97;4.40;;;;;;;29.68;46.95;100241.79;128382;1084;64139;-86
2021/07/31 02:29:12;;;;;;;7.27;4.60;;;;;;;29.68;46.35;100244.50;128396;1082;64206;-86
2021/07/31 02:31:39;;;;;;;5.87;4.27;;;;;;;29.68;46.16;100234.46;128392;1084;64138;-87
2021/07/31 02:34:08;;;;;;;7.90;4.53;;;;;;;29.69;46.78;100243.48;128416;1084;64096;-86
2021/07/31 02:36:34;;;;;;;5.90;4.33;;;;;;;29.68;46.45;100244.50;128357;1084;64253;-86
2021/07/31 02:39:01;;;;;;;5.60;4.17;;;;;;;29.68;46.80;100242.63;128388;1084;64208;-86
2021/07/31 02:41:59;;;;;;;6.57;4.23;;;;;;;29.67;46.42;100243.67;128395;1084;64125;-86
2021/07/31 02:44:26;;;;;;;7.23;4.63;;;;;;;29.68;46.45;100252.66;127997;1087;64063;-86
2021/07/31 02:46:52;;;;;;;6.63;4.63;;;;;;;29.68;46.54;100266.27;127969;1087;64387;-86
2021/07/31 02:49:24;;;;;;;6.30;4.70;;;;;;;29.67;46.94;100261.84;128011;1087;64268;-86
2021/07/31 02:51:52;;;;;;;5.20;4.30;;;;;;;29.68;46.41;100272.54;128363;1086;64107;-85
2021/07/31 02:54:18;;;;;;;6.30;4.70;;;;;;;29.67;46.81;100265.44;127987;1085;64239;-86
2021/07/31 02:56:45;;;;;;;6.03;4.60;;;;;;;29.68;46.29;100269.82;128018;1087;64181;-85
2021/07/31 02:59:20;;;;;;;5.20;4.43;;;;;;;29.67;46.55;100268.15;128006;1087;64198;-86
2021/07/31 03:01:46;;;;;;;5.20;4.13;;;;;;;29.67;46.90;100270.88;128035;1087;64134;-86
2021/07/31 03:04:12;;;;;;;6.73;4.80;;;;;;;29.67;46.51;100270.88;128359;1086;64282;-86
2021/07/31 03:06:42;;;;;;;5.97;4.77;;;;;;;29.67;46.53;100268.15;128042;1087;64144;-86
2021/07/31 03:09:08;;;;;;;6.50;4.47;;;;;;;29.67;46.55;100272.73;128009;1087;64314;-86
2021/07/31 03:11:35;;;;;;;5.43;4.27;;;;;;;29.67;46.75;100270.88;128012;1087;64230;-86
2021/07/31 03:14:02;;;;;;;5.63;4.53;;;;;;;29.67;46.65;100268.15;127992;1086;64494;-86
2021/07/31 03:16:28;;;;;;;6.07;4.40;;;;;;;29.66;46.70;100266.45;127975;1087;64311;-86
2021/07/31 03:18:54;;;;;;;6.17;4.57;;;;;;;29.68;46.61;100275.27;127991;1087;64212;-86
2021/07/31 03:21:21;;;;;;;5.73;4.40;;;;;;;29.66;46.88;100280.05;128033;1084;64229;-86
2021/07/31 03:23:56;;;;;;;5.57;4.40;;;;;;;29.67;46.92;100278.16;128399;1084;64259;-86
2021/07/31 03:26:23;;;;;;;6.37;4.70;;;;;;;29.67;46.92;100275.44;128414;1084;64271;-86
2021/07/31 03:28:49;;;;;;;7.23;4.37;;;;;;;29.68;46.98;100277.14;128382;1084;64139;-85
2021/07/31 03:31:20;;;;;;;5.37;4.40;;;;;;;29.67;46.59;100273.59;128404;1084;64093;-86
2021/07/31 03:33:47;;;;;;;7.03;4.67;;;;;;;29.67;46.69;100279.03;128383;1084;64176;-86
2021/07/31 03:36:16;;;;;;;5.90;4.40;;;;;;;29.67;47.04;100272.73;128366;1084;64285;-86
2021/07/31 03:38:43;;;;;;;5.35;4.20;;;;;;;29.67;46.67;100280.89;128416;1083;64090;-86
2021/07/31 03:41:15;;;;;;;5.40;4.40;;;;;;;29.67;46.85;100278.16;128383;1084;64117;-87
2021/07/31 03:43:44;;;;;;;6.47;4.33;;;;;;;29.67;46.99;100280.89;128421;1084;64135;-86
2021/07/31 03:46:11;;;;;;;6.57;4.63;;;;;;;29.67;46.76;100276.31;128385;1084;62844;-86
2021/07/31 03:48:37;;;;;;;6.97;4.73;;;;;;;29.67;47.19;100284.47;128405;1083;63971;-86
2021/07/31 03:51:12;;;;;;;6.53;4.57;;;;;;;29.68;46.66;100285.30;128384;1084;64135;-85
2021/07/31 03:53:39;;;;;;;5.90;4.03;;;;;;;29.67;46.99;100284.47;128446;1083;64067;-86
2021/07/31 03:56:05;;;;;;;5.97;4.33;;;;;;;29.67;46.73;100289.91;128469;1084;64079;-85
2021/07/31 03:58:32;;;;;;;6.00;4.50;;;;;;;29.68;47.06;100288.86;128497;1083;64093;-86
2021/07/31 04:01:01;;;;;;;6.17;4.50;;;;;;;29.69;46.90;100290.56;128456;1084;63903;-85
2021/07/31 04:03:28;;;;;;;6.43;4.73;;;;;;;29.69;47.12;100285.13;128372;1084;64137;-86
2021/07/31 04:06:01;;;;;;;5.53;4.77;;;;;;;29.69;47.08;100287.84;128410;1082;64153;-85
2021/07/31 04:08:30;;;;;;;6.40;4.50;;;;;;;29.69;46.87;100285.13;128448;1083;64150;-86
2021/07/31 04:11:03;;;;;;;6.53;4.40;;;;;;;29.69;47.15;100287.84;128389;1084;64150;-86
2021/07/31 04:13:31;;;;;;;6.57;4.43;;;;;;;29.70;47.04;100299.59;128342;1082;64437;-86
2021/07/31 04:15:57;;;;;;;6.57;4.37;;;;;;;29.69;47.14;100293.28;128415;1082;64155;-86
2021/07/31 04:18:32;;;;;;;5.47;4.20;;;;;;;29.70;46.78;100296.87;128422;1082;64265;-86
2021/07/31 04:21:00;;;;;;;6.37;4.70;;;;;;;29.69;46.68;100298.72;128377;1084;64090;-86
2021/07/31 04:23:28;;;;;;;6.37;4.30;;;;;;;29.70;47.19;100300.42;128446;1083;64276;-86
2021/07/31 04:25:54;;;;;;;5.90;4.60;;;;;;;29.70;46.94;100300.42;128397;1084;64207;-86
2021/07/31 04:28:20;;;;;;;7.70;4.57;;;;;;;29.70;46.74;100294.98;128447;1084;64603;-86
2021/07/31 04:30:48;;;;;;;5.67;4.00;;;;;;;29.70;46.73;100296.87;128402;1084;64230;-86
2021/07/31 04:33:22;;;;;;;5.57;4.23;;;;;;;29.70;46.67;100297.70;128414;1084;64122;-86
2021/07/31 04:35:57;;;;;;;5.93;4.73;;;;;;;29.71;46.97;100293.09;128395;1083;64108;-86
2021/07/31 04:38:24;;;;;;;5.93;4.67;;;;;;;29.71;46.87;100296.69;128456;1084;64237;-87
2021/07/31 04:40:50;;;;;;;5.67;4.50;;;;;;;29.71;47.14;100295.81;128374;1084;64264;-87
2021/07/31 04:43:20;;;;;;;5.43;4.40;;;;;;;29.71;47.21;100288.52;128426;1084;64281;-86
2021/07/31 04:45:49;;;;;;;5.23;4.47;;;;;;;29.72;47.08;100283.92;128423;1084;64131;-86
2021/07/31 04:48:25;;;;;;;7.40;4.40;;;;;;;29.72;46.75;100281.20;128386;1084;64302;-86
2021/07/31 04:51:00;;;;;;;5.57;4.27;;;;;;;29.72;47.17;100275.76;128413;1084;65014;-86
2021/07/31 04:53:27;;;;;;;5.80;4.40;;;;;;;29.71;46.74;100271.34;128414;1084;64144;-86
2021/07/31 04:55:57;;;;;;;6.10;4.40;;;;;;;29.72;46.83;100262.98;128433;1084;64368;-86
2021/07/31 04:58:26;;;;;;;6.00;4.37;;;;;;;29.72;46.78;100270.31;128429;1084;64125;-85
2021/07/31 05:01:00;;;;;;;6.33;4.10;;;;;;;29.73;46.94;100269.30;128393;1083;64176;-85
2021/07/31 05:03:29;;;;;;;5.33;4.23;;;;;;;29.74;47.08;100276.44;128391;1084;64125;-87
2021/07/31 05:05:59;;;;;;;6.97;4.43;;;;;;;29.72;46.74;100276.59;128411;1084;63029;-86
2021/07/31 05:08:30;;;;;;;5.75;4.50;;;;;;;29.74;46.96;100279.16;128398;1084;65337;-86
2021/07/31 05:10:59;;;;;;;6.10;4.30;;;;;;;29.74;46.72;100285.44;128387;1084;65123;-86
2021/07/31 05:13:26;;;;;;;6.07;4.50;;;;;;;29.74;47.17;100277.27;128382;1084;64137;-85
2021/07/31 05:15:58;;;;;;;6.27;4.57;;;;;;;29.76;47.25;100285.25;128393;1084;64169;-87
2021/07/31 05:18:29;;;;;;;5.63;4.43;;;;;;;29.78;46.70;100287.78;128423;1084;64158;-86
2021/07/31 05:20:59;;;;;;;6.27;4.07;;;;;;;29.78;46.86;100282.34;128428;1083;64214;-86
2021/07/31 05:23:30;;;;;;;5.27;4.10;;;;;;;29.79;47.26;100292.20;128411;1081;64128;-88
2021/07/31 05:25:56;;;;;;;5.10;4.03;;;;;;;29.79;46.61;100287.60;128420;1084;64144;-87
2021/07/31 05:28:22;;;;;;;5.27;4.00;;;;;;;29.79;46.99;100286.77;128405;1084;64131;-86
2021/07/31 05:30:50;;;;;;;5.20;3.80;;;;;;;29.81;47.12;100296.44;128333;1083;64163;-87
2021/07/31 05:33:19;;;;;;;5.77;3.87;;;;;;;29.81;47.12;100293.72;128370;1084;64128;-86
2021/07/31 05:35:45;;;;;;;6.30;4.13;;;;;;;29.82;47.10;100297.28;128405;1084;64180;-86
2021/07/31 05:38:14;;;;;;;5.33;4.07;;;;;;;29.84;46.87;100306.13;128453;1084;64268;-86
2021/07/31 05:40:42;;;;;;;5.53;4.07;;;;;;;29.83;46.79;100310.73;128402;1084;64125;-86
2021/07/31 05:43:13;;;;;;;5.27;4.00;;;;;;;29.85;47.09;100315.98;128422;1082;64169;-86
2021/07/31 05:45:40;;;;;;;5.70;4.17;;;;;;;29.85;47.06;100316.81;128403;1084;64150;-86
2021/07/31 05:48:06;;;;;;;6.30;4.00;;;;;;;29.86;46.81;100321.27;128416;1084;64903;-87
2021/07/31 05:50:41;;;;;;;6.07;4.13;;;;;;;29.87;46.83;100313.95;128445;1083;64138;-86
2021/07/31 05:53:08;;;;;;;5.77;4.00;;;;;;;29.87;46.95;100322.97;128384;1084;65349;-87
2021/07/31 05:55:34;;;;;;;5.47;4.03;;;;;;;29.87;46.76;100319.39;128394;1084;64141;-87
2021/07/31 05:58:01;;;;;;;5.20;3.77;;;;;;;29.88;46.93;100323.81;128387;1082;64590;-87
2021/07/31 06:00:28;;;;;;;5.07;4.00;;;;;;;29.88;47.13;100321.92;128365;1084;64212;-86
2021/07/31 06:02:57;;;;;;;5.63;4.40;;;;;;;29.88;46.83;100319.20;128358;1084;64238;-86
2021/07/31 06:05:23;;;;;;;4.93;4.00;;;;;;;29.89;46.85;100323.63;128409;1084;64272;-87
2021/07/31 06:08:01;;;;;;;5.13;3.97;;;;;;;29.90;47.11;100316.33;128396;1084;64584;-86
2021/07/31 06:10:27;;;;;;;6.23;4.10;;;;;;;29.90;46.94;100322.61;128399;1084;64137;-86
2021/07/31 06:13:04;;;;;;;5.23;4.13;;;;;;;29.90;46.60;100321.77;128425;1083;64168;-86
2021/07/31 06:15:31;;;;;;;5.95;4.20;;;;;;;29.91;46.59;100324.31;128394;1082;65343;-86
2021/07/31 06:18:07;;;;;;;5.07;4.10;;;;;;;29.92;47.05;100325.14;128415;1084;64128;-87
2021/07/31 06:20:36;;;;;;;6.03;4.33;;;;;;;29.91;47.05;100324.31;128395;1084;64151;-86
2021/07/31 06:23:06;;;;;;;5.03;4.03;;;;;;;29.95;46.78;100329.38;128379;1084;64131;-87
2021/07/31 06:25:35;;;;;;;5.80;4.10;;;;;;;29.93;46.73;100319.52;128413;1084;64069;-86
2021/07/31 06:28:10;;;;;;;5.50;4.20;;;;;;;29.95;47.05;100315.77;128388;1084;64699;-86
2021/07/31 06:30:41;;;;;;;5.60;4.17;;;;;;;29.96;46.75;100317.48;128388;1084;63896;-86
2021/07/31 06:33:12;;;;;;;5.30;4.07;;;;;;;29.96;47.03;100320.20;128395;1082;64253;-86
2021/07/31 06:35:40;;;;;;;5.10;3.93;;;;;;;29.96;46.84;100315.59;128406;1084;64176;-86
2021/07/31 06:38:10;;;;;;;4.80;3.87;;;;;;;29.97;46.96;100319.17;128384;1084;64134;-86
2021/07/31 06:40:37;;;;;;;5.93;4.20;;;;;;;29.97;46.72;100319.17;128409;1084;64131;-86
2021/07/31 06:43:03;;;;;;;4.67;3.77;;;;;;;29.98;47.03;100313.55;128360;1082;64136;-86
2021/07/31 06:45:33;;;;;;;6.30;3.97;;;;;;;29.98;47.15;100318.99;128427;1084;64182;-86
2021/07/31 06:47:59;;;;;;;6.30;4.27;;;;;;;29.99;46.83;100311.66;128412;1084;64161;-85
2021/07/31 06:50:40;;;;;;;5.27;4.23;;;;;;;29.98;47.17;100313.55;128360;1084;64134;-88
2021/07/31 06:53:06;;;;;;;6.30;4.30;;;;;;;29.99;47.08;100315.22;128421;1084;64099;-86
2021/07/31 06:55:35;;;;;;;5.03;3.90;;;;;;;30.00;46.98;100307.92;128435;1084;64295;-86
2021/07/31 06:58:06;;;;;;;4.73;3.80;;;;;;;30.00;47.22;100314.20;128385;1084;64744;-85
2021/07/31 07:00:35;;;;;;;6.53;4.17;;;;;;;30.02;47.20;100316.73;128396;1084;64150;-86
2021/07/31 07:03:05;;;;;;;5.33;4.20;;;;;;;30.01;47.26;100318.63;128357;1082;64730;-86
2021/07/31 07:05:31;;;;;;;5.20;4.10;;;;;;;30.01;47.12;100309.63;128390;1082;64272;-85
2021/07/31 07:07:57;;;;;;;6.13;4.43;;;;;;;30.01;47.26;100324.06;128418;1084;64107;-86
2021/07/31 07:10:24;;;;;;;5.03;4.00;;;;;;;30.02;47.41;100323.05;128412;1082;64202;-87
2021/07/31 07:12:53;;;;;;;5.37;4.23;;;;;;;30.02;47.16;100325.77;128398;1084;64096;-86
2021/07/31 07:15:22;;;;;;;5.30;4.30;;;;;;;30.02;47.15;100324.90;128386;1082;64272;-86
2021/07/31 07:17:49;;;;;;;5.37;3.87;;;;;;;30.03;47.30;100323.88;128438;1084;64131;-87
2021/07/31 07:20:15;;;;;;;5.77;3.90;;;;;;;30.02;46.96;100322.17;128385;1084;64125;-86
2021/07/31 07:22:44;;;;;;;6.10;4.10;;;;;;;30.04;47.11;100328.30;128407;1084;63687;-86
2021/07/31 07:25:12;;;;;;;;;;;;;;;30.03;47.39;100321.16;128395;1084;64132;-86
2021/07/31 07:27:39;;;;;;;5.85;4.00;;;;;;;30.01;47.34;100318.63;128443;1084;64181;-85
2021/07/31 07:30:06;;;;;;;5.37;4.20;;;;;;;30.02;47.05;100316.73;128378;1084;64285;-86
2021/07/31 07:32:37;;;;;;;5.60;3.90;;;;;;;30.03;47.01;100321.16;128436;1084;64275;-86
2021/07/31 07:35:04;;;;;;;5.00;4.20;;;;;;;30.02;47.33;100312.16;128392;1084;64179;-87
2021/07/31 07:37:54;;;;;;;5.30;4.30;;;;;;;30.03;46.95;100312.99;128416;1082;64192;-86
2021/07/31 07:40:23;;;;;;;5.37;3.90;;;;;;;30.02;47.40;100298.55;128387;1085;64074;-87
2021/07/31 07:42:51;;;;;;;5.40;4.17;;;;;;;30.03;47.09;100308.41;127981;1086;64153;-87
2021/07/31 07:45:17;;;;;;;;;;;;;;;30.02;47.15;100306.72;128026;1087;64215;-86
2021/07/31 07:47:44;;;;;;;5.47;4.07;;;;;;;30.03;47.43;100302.11;128393;1087;63949;-86
2021/07/31 07:50:13;;;;;;;6.23;4.07;;;;;;;30.02;47.09;100305.84;128005;1085;64217;-86
2021/07/31 07:52:39;;;;;;;5.35;4.18;;;;;;;30.03;47.04;100293.94;127992;1086;64155;-86
2021/07/31 07:55:09;;;;;;;4.90;3.93;;;;;;;30.03;47.05;100304.83;128011;1087;64170;-85
2021/07/31 07:57:39;;;;;;;5.27;4.10;;;;;;;30.03;47.24;100302.97;128105;1086;64111;-85
2021/07/31 08:00:07;;;;;;;6.00;4.17;;;;;;;30.04;47.00;100298.36;128118;1087;64498;-85
2021/07/31 08:02:34;;;;;;;5.13;3.95;;;;;;;30.04;47.68;100298.36;128190;1087;64198;-85
2021/07/31 08:05:01;;;;;;;5.35;4.20;;;;;;;30.05;47.13;100300.06;128110;1087;64099;-85
2021/07/31 08:07:27;;;;;;;5.40;3.97;;;;;;;30.06;47.58;100293.57;128043;1086;64144;-85
2021/07/31 08:09:55;;;;;;;5.20;4.23;;;;;;;30.06;47.43;100297.16;128014;1087;64138;-86
2021/07/31 08:12:22;;;;;;;5.17;3.93;;;;;;;30.07;47.53;100293.41;128004;1087;64243;-86
2021/07/31 08:14:52;;;;;;;4.63;3.90;;;;;;;30.06;47.09;100288.13;128040;1087;64281;-86
2021/07/31 08:17:19;;;;;;;5.30;4.00;;;;;;;30.07;47.20;100284.38;128068;1084;64141;-86
2021/07/31 08:19:46;;;;;;;4.90;3.90;;;;;;;30.06;47.57;100291.72;128421;1083;64128;-87
2021/07/31 08:22:15;;;;;;;5.43;4.00;;;;;;;30.07;47.60;100287.11;128380;1084;64115;-86
2021/07/31 08:24:50;;;;;;;4.83;3.60;;;;;;;30.07;47.47;100282.53;128398;1082;64144;-87
2021/07/31 08:27:19;;;;;;;5.57;4.03;;;;;;;30.07;47.18;100285.25;128427;1084;64128;-86
2021/07/31 08:29:50;;;;;;;6.07;4.23;;;;;;;30.06;47.46;100275.38;128451;1084;63956;-86
2021/07/31 08:32:16;;;;;;;5.27;4.00;;;;;;;30.07;47.27;100287.97;128396;1084;64173;-86
2021/07/31 08:34:44;;;;;;;5.53;3.90;;;;;;;30.06;47.22;100278.10;128364;1084;64328;-87
2021/07/31 08:37:14;;;;;;;5.88;4.30;;;;;;;30.07;47.54;100279.80;128396;1084;64362;-86
2021/07/31 08:39:48;;;;;;;5.10;3.93;;;;;;;30.07;47.53;100282.53;128408;1084;65080;-87
2021/07/31 08:42:18;;;;;;;4.60;3.83;;;;;;;30.07;47.41;100282.53;128376;1084;64095;-87
2021/07/31 08:44:45;;;;;;;5.60;4.47;;;;;;;30.07;47.13;100282.53;128403;1084;64281;-87
2021/07/31 08:47:13;;;;;;;5.70;3.90;;;;;;;30.07;47.28;100279.80;128441;1083;61804;-86
2021/07/31 08:49:44;;;;;;;5.57;3.90;;;;;;;30.07;47.15;100281.66;128409;1082;64231;-86
2021/07/31 08:52:10;;;;;;;5.17;4.07;;;;;;;30.07;47.40;100273.50;128372;1084;64131;-86
2021/07/31 08:54:39;;;;;;;4.57;3.70;;;;;;;30.08;47.27;100280.64;128366;1084;64275;-87
2021/07/31 08:57:06;;;;;;;5.30;4.13;;;;;;;30.07;47.07;100278.94;128448;1084;64067;-86
2021/07/31 08:59:34;;;;;;;5.80;4.20;;;;;;;30.08;47.29;100283.36;128357;1084;64156;-86
2021/07/31 09:02:00;;;;;;;4.83;3.83;;;;;;;30.07;47.32;100268.92;128360;1084;64123;-86
2021/07/31 09:04:27;;;;;;;4.87;4.10;;;;;;;30.08;46.98;100280.64;128375;1082;64130;-87
2021/07/31 09:06:53;;;;;;;5.13;4.07;;;;;;;30.07;47.44;100266.20;128397;1084;64299;-86
2021/07/31 09:09:34;;;;;;;5.20;3.80;;;;;;;30.08;47.51;100264.31;128385;1084;64208;-87
2021/07/31 09:12:06;;;;;;;5.30;3.70;;;;;;;30.08;47.43;100267.03;128404;1084;64128;-85
2021/07/31 09:14:33;;;;;;;4.63;3.90;;;;;;;30.07;47.53;100271.64;128391;1084;64352;-86
2021/07/31 09:17:00;;;;;;;4.70;3.57;;;;;;;30.08;47.44;100265.14;128448;1084;64048;-86
2021/07/31 09:19:29;;;;;;;5.63;4.00;;;;;;;30.08;47.19;100264.31;128433;1084;64658;-86
2021/07/31 09:22:06;;;;;;;4.53;3.83;;;;;;;30.07;47.30;100265.33;128363;1082;64128;-86
2021/07/31 09:24:35;;;;;;;5.00;3.83;;;;;;;30.08;47.13;100269.75;128341;1084;64204;-87
2021/07/31 09:27:01;;;;;;;4.93;3.80;;;;;;;30.07;47.57;100268.92;128371;1083;64638;-87
2021/07/31 09:29:37;;;;;;;5.30;4.03;;;;;;;30.08;47.46;100253.42;128417;1082;63946;-86
2021/07/31 09:32:07;;;;;;;6.47;4.00;;;;;;;30.07;47.51;100247.14;128402;1084;64147;-86
2021/07/31 09:34:38;;;;;;;5.53;3.87;;;;;;;30.08;47.31;100261.59;128374;1084;64237;-86
2021/07/31 09:37:13;;;;;;;4.90;4.00;;;;;;;30.07;47.13;100258.03;128451;1084;64151;-87
2021/07/31 09:39:55;;;;;;;4.63;3.80;;;;;;;30.09;47.40;100261.41;128427;1082;64048;-86
2021/07/31 09:42:32;;;;;;;4.80;3.83;;;;;;;30.08;47.67;100259.70;128415;1084;64093;-86
2021/07/31 09:45:07;;;;;;;5.00;3.80;;;;;;;30.08;47.61;100253.42;128438;1084;64131;-85
2021/07/31 09:47:33;;;;;;;5.73;3.80;;;;;;;30.08;47.16;100250.70;128443;1084;64201;-86
2021/07/31 09:50:03;;;;;;;4.43;3.97;;;;;;;30.08;47.16;100240.65;128388;1084;64100;-86
2021/07/31 09:52:30;;;;;;;6.20;4.10;;;;;;;30.08;47.53;100242.53;128391;1084;64170;-86
2021/07/31 09:54:57;;;;;;;5.00;3.90;;;;;;;30.07;47.09;100246.28;128424;1084;64211;-85
2021/07/31 09:57:26;;;;;;;6.27;4.20;;;;;;;30.08;47.41;100239.81;128428;1083;64128;-86
2021/07/31 09:59:59;;;;;;;5.03;4.00;;;;;;;30.07;47.23;100235.39;128426;1084;64141;-86
2021/07/31 10:02:27;;;;;;;5.30;3.63;;;;;;;30.08;47.11;100237.09;128385;1084;64304;-86
2021/07/31 10:04:53;;;;;;;5.28;3.58;;;;;;;30.08;47.08;100242.53;128391;1084;64144;-86
2021/07/31 10:07:20;;;;;;;4.97;3.87;;;;;;;30.07;47.08;100233.54;128438;1083;64121;-87
2021/07/31 10:09:53;;;;;;;5.10;3.85;;;;;;;30.07;47.24;100235.39;128383;1083;64150;-86
2021/07/31 10:12:27;;;;;;;5.77;4.20;;;;;;;30.07;47.50;100235.39;128349;1083;64224;-86
2021/07/31 10:14:53;;;;;;;5.20;4.07;;;;;;;30.06;47.25;100225.53;128387;1084;64241;-87
2021/07/31 10:17:27;;;;;;;5.73;3.87;;;;;;;30.06;47.35;100223.67;128309;1082;64287;-84
2021/07/31 10:19:54;;;;;;;5.70;4.00;;;;;;;30.06;47.38;100226.39;128237;1084;64129;-85
2021/07/31 10:22:40;;;;;;;4.83;3.87;;;;;;;30.08;47.44;100223.48;128334;1084;64002;-86
2021/07/31 10:25:19;;;;;;;5.27;3.90;;;;;;;30.08;47.42;100223.48;128386;1084;64332;-87
2021/07/31 10:27:48;;;;;;;;;;;;;;;30.06;47.23;100228.25;128465;1084;64155;-87
2021/07/31 10:30:46;;;;;;;5.90;4.07;;;;;;;30.06;47.25;100220.95;128400;1082;64211;-86
2021/07/31 10:34:01;;;;;;;5.03;3.87;;;;;;;30.06;47.35;100222.81;128350;1087;63657;-86
2021/07/31 10:36:34;;;;;;;6.20;4.10;;;;;;;30.05;47.49;100213.81;128269;1086;64130;-86
2021/07/31 10:39:25;;;;;;;5.87;3.97;;;;;;;30.05;47.42;100211.09;128367;1087;64099;-86
2021/07/31 10:41:57;;;;;;;5.27;4.00;;;;;;;30.07;47.04;100216.34;128013;1085;64088;-86
2021/07/31 10:44:34;;;;;;;4.93;4.03;;;;;;;30.07;47.29;100208.17;128336;1086;64237;-86
2021/07/31 10:47:19;;;;;;;5.13;4.10;;;;;;;30.06;47.20;100212.79;128009;1085;62200;-86
2021/07/31 10:49:46;;;;;;;5.20;4.03;;;;;;;30.06;47.43;100217.36;128403;1087;64138;-86
2021/07/31 10:52:51;;;;;;;4.97;3.57;;;;;;;30.06;47.44;100214.64;127968;1087;64163;-86
2021/07/31 10:55:21;;;;;;;5.20;3.93;;;;;;;30.06;47.15;100209.20;128180;1087;64102;-87
2021/07/31 10:57:53;;;;;;;4.80;3.80;;;;;;;30.05;47.44;100205.64;128012;1086;63910;-86
2021/07/31 11:00:46;;;;;;;4.90;4.00;;;;;;;30.05;47.50;100208.37;128361;1087;64212;-86
2021/07/31 11:03:23;;;;;;;4.30;3.53;;;;;;;30.06;47.29;100211.92;128355;1087;64268;-86
2021/07/31 11:05:49;;;;;;;5.40;3.73;;;;;;;30.06;47.57;100203.76;128379;1087;64259;-86
2021/07/31 11:08:23;;;;;;;5.53;3.83;;;;;;;30.05;47.37;100205.64;128360;1086;64272;-86
2021/07/31 11:10:56;;;;;;;4.83;4.00;;;;;;;30.05;47.60;100192.04;128130;1084;64016;-86
2021/07/31 11:13:34;;;;;;;4.57;4.00;;;;;;;30.05;47.34;100192.04;128366;1084;64131;-86
2021/07/31 11:16:04;;;;;;;5.87;3.90;;;;;;;30.05;47.52;100196.64;128389;1083;64089;-85
2021/07/31 11:18:36;;;;;;;4.60;3.70;;;;;;;30.06;47.50;100191.02;128407;1084;64211;-86
2021/07/31 11:21:26;;;;;;;5.80;3.70;;;;;;;30.06;47.52;100188.30;128444;1083;62775;-86
2021/07/31 11:24:03;;;;;;;4.60;3.70;;;;;;;30.05;47.39;100189.31;128291;1084;65705;-86
2021/07/31 11:26:46;;;;;;;4.50;3.70;;;;;;;30.06;47.25;100192.88;128263;1082;64307;-86
2021/07/31 11:29:23;;;;;;;4.80;4.10;;;;;;;30.06;47.48;100181.98;128291;1084;64291;-85
2021/07/31 11:32:13;;;;;;;5.37;4.00;;;;;;;30.07;47.14;100178.24;128270;1084;64128;-85
2021/07/31 11:34:47;;;;;;;5.20;4.00;;;;;;;30.07;47.00;100179.11;128282;1084;64173;-86
2021/07/31 11:37:14;;;;;;;5.20;3.90;;;;;;;30.08;47.08;100179.94;128292;1084;64115;-86